Time;durP1;ratioP1;P1;durP2;ratioP2;P2;SDS_P1;SDS_P2;PMS_P1;PMS_P2;Temp;Humidity;BMP_temperature;BMP_pressure;BME280_temperature;BME280_humidity;BME280_pressure;Samples;Min_cycle;Max_cycle;Signal;HPM_P1;HPM_P2
2022/03/07 00:01:36;;;;;;;5.35;4.90;;;2.60;99.90;;;;;;4944523;29;20263;-86
2022/03/07 00:04:03;;;;;;;6.13;5.00;;;2.40;1.00;;;;;;4944504;29;20273;-85
2022/03/07 00:06:30;;;;;;;5.35;4.95;;;2.40;28.70;;;;;;4944499;29;20277;-85
2022/03/07 00:08:57;;;;;;;5.47;4.97;;;2.40;1.00;;;;;;4944284;29;20207;-85
2022/03/07 00:11:23;;;;;;;6.10;4.68;;;2.40;1.00;;;;;;4944376;29;20238;-85
2022/03/07 00:13:50;;;;;;;8.48;5.28;;;2.60;99.90;;;;;;4943882;29;20203;-85
2022/03/07 00:16:17;;;;;;;7.78;5.15;;;2.40;94.20;;;;;;4943678;29;20235;-86
2022/03/07 00:18:45;;;;;;;6.45;5.85;;;2.40;1.00;;;;;;4943246;29;20234;-85
2022/03/07 00:21:12;;;;;;;6.22;5.45;;;2.20;99.90;;;;;;4943285;29;20235;-85
2022/03/07 00:23:39;;;;;;;5.78;5.07;;;2.50;99.90;;;;;;4943562;29;20227;-85
2022/03/07 00:26:06;;;;;;;7.72;6.22;;;2.30;99.90;;;;;;4945681;29;20376;-85
2022/03/07 00:28:33;;;;;;;5.60;5.10;;;2.30;1.00;;;;;;4956227;28;20195;-85
2022/03/07 00:31:00;;;;;;;5.53;4.78;;;2.30;99.90;;;;;;4957475;28;20223;-85
2022/03/07 00:33:27;;;;;;;7.47;5.05;;;2.50;99.90;;;;;;4958236;29;20207;-85
2022/03/07 00:35:55;;;;;;;7.05;5.95;;;2.20;1.00;;;;;;4958678;29;20218;-85
2022/03/07 00:38:21;;;;;;;5.03;4.53;;;2.20;1.00;;;;;;4958011;28;20207;-84
2022/03/07 00:40:48;;;;;;;5.38;4.88;;;1.70;99.90;;;;;;4959033;28;20230;-85
2022/03/07 00:43:15;;;;;;;6.85;6.10;;;2.50;99.90;;;;;;4949739;29;20247;-85
2022/03/07 00:45:42;;;;;;;8.40;5.38;;;2.00;99.90;;;;;;4945449;29;20235;-85
2022/03/07 00:48:08;;;;;;;6.88;6.13;;;2.00;99.90;;;;;;4947280;29;20214;-85
2022/03/07 00:50:35;;;;;;;6.93;6.22;;;1.90;99.90;;;;;;4945494;29;20528;-86
2022/03/07 00:53:03;;;;;;;10.32;5.50;;;1.90;99.90;;;;;;4946521;29;20640;-85
2022/03/07 00:55:31;;;;;;;6.45;5.85;;;1.90;99.90;;;;;;4944656;29;20222;-86
2022/03/07 00:57:58;;;;;;;7.10;5.70;;;1.90;99.90;;;;;;4944913;29;20210;-85
2022/03/07 01:00:24;;;;;;;8.25;6.70;;;1.90;99.90;;;;;;4945227;29;20210;-86
2022/03/07 01:02:51;;;;;;;9.25;6.35;;;2.20;1.00;;;;;;4944734;29;20218;-85
2022/03/07 01:05:19;;;;;;;7.63;6.10;;;2.00;1.00;;;;;;4946569;29;20290;-85
2022/03/07 01:07:46;;;;;;;7.07;6.25;;;1.90;1.00;;;;;;4947662;29;20203;-85
2022/03/07 01:10:14;;;;;;;7.15;6.15;;;1.80;99.90;;;;;;4948196;29;20258;-85
2022/03/07 01:12:41;;;;;;;8.00;6.25;;;1.50;1.00;;;;;;4948059;29;20203;-85
2022/03/07 01:15:09;;;;;;;7.72;6.88;;;1.70;1.00;;;;;;4947865;29;20230;-85
2022/03/07 01:17:35;;;;;;;11.25;6.18;;;1.60;99.90;;;;;;4955524;29;20207;-85
2022/03/07 01:20:03;;;;;;;7.63;6.30;;;1.50;99.90;;;;;;4960949;29;20217;-85
2022/03/07 01:22:30;;;;;;;7.05;6.30;;;1.50;1.00;;;;;;4958066;29;20211;-85
2022/03/07 01:24:56;;;;;;;7.22;6.63;;;1.40;95.80;;;;;;4948366;29;20211;-85
2022/03/07 01:27:24;;;;;;;10.07;6.60;;;1.50;1.00;;;;;;4961235;28;20202;-85
2022/03/07 01:29:51;;;;;;;8.40;7.05;;;1.50;99.90;;;;;;4963726;28;20187;-85
2022/03/07 01:32:18;;;;;;;8.40;5.72;;;1.50;1.00;;;;;;4963725;28;20195;-85
2022/03/07 01:34:45;;;;;;;6.13;5.63;;;;;;;;;;4948758;28;20669;-84
2022/03/07 01:37:11;;;;;;;6.90;6.13;;;1.50;99.90;;;;;;4943402;29;20223;-85
2022/03/07 01:39:38;;;;;;;8.38;6.45;;;1.50;99.90;;;;;;4943623;29;20235;-85
2022/03/07 01:42:05;;;;;;;9.73;8.15;;;1.30;99.90;;;;;;4944415;29;20207;-85
2022/03/07 01:44:34;;;;;;;10.55;8.40;;;1.30;99.90;;;;;;4945160;29;20289;-84
2022/03/07 01:47:00;;;;;;;7.90;7.10;;;1.30;99.90;;;;;;4951769;29;20234;-85
2022/03/07 01:49:28;;;;;;;9.18;6.82;;;1.30;99.90;;;;;;4949308;29;20219;-85
2022/03/07 01:51:55;;;;;;;8.70;6.32;;;1.30;99.90;;;;;;4947625;29;20211;-87
2022/03/07 01:54:23;;;;;;;9.60;8.30;;;1.30;1.00;;;;;;4946921;29;20203;-84
2022/03/07 01:56:52;;;;;;;12.05;8.13;;;1.20;99.90;;;;;;4947040;29;20226;-86
2022/03/07 01:59:20;;;;;;;10.73;9.02;;;0.80;1.00;;;;;;4947463;29;20238;-86
2022/03/07 02:01:48;;;;;;;11.45;8.68;;;1.10;1.00;;;;;;4947210;29;20211;-85
2022/03/07 02:04:15;;;;;;;17.05;9.10;;;1.00;1.00;;;;;;4955007;29;20219;-85
2022/03/07 02:06:42;;;;;;;7.50;6.80;;;0.90;1.00;;;;;;4960614;29;20230;-85
2022/03/07 02:09:10;;;;;;;10.10;9.18;;;1.00;1.00;;;;;;4960980;29;20207;-86
2022/03/07 02:11:38;;;;;;;9.82;7.82;;;1.00;1.00;;;;;;4958666;29;20218;-86
2022/03/07 02:14:12;;;;;;;11.82;7.78;;;1.00;97.00;;;;;;4958881;29;20203;-85
2022/03/07 02:16:39;;;;;;;10.25;6.82;;;1.10;1.00;;;;;;4959006;29;20294;-86
2022/03/07 02:19:07;;;;;;;8.80;6.60;;;1.10;1.00;;;;;;4956367;29;20239;-86
2022/03/07 02:21:35;;;;;;;9.75;7.20;;;2.00;1.00;;;;;;4948846;29;20259;-86
2022/03/07 02:24:04;;;;;;;7.47;6.65;;;1.10;1.00;;;;;;4948069;29;20274;-86
2022/03/07 02:26:31;;;;;;;9.05;7.60;;;1.00;1.00;;;;;;4953233;29;20235;-84
2022/03/07 02:28:57;;;;;;;13.32;8.13;;;1.10;99.90;;;;;;4961266;29;20278;-84
2022/03/07 02:31:24;;;;;;;8.98;6.88;;;1.10;99.90;;;;;;4962192;28;20191;-84
2022/03/07 02:33:50;;;;;;;8.23;6.90;;;0.90;99.90;;;;;;4962235;28;20191;-83
2022/03/07 02:36:17;;;;;;;6.82;6.13;;;1.10;93.20;;;;;;4961410;29;20226;-84
2022/03/07 02:38:44;;;;;;;10.00;7.32;;;1.10;99.90;;;;;;4960660;29;20191;-85
2022/03/07 02:41:12;;;;;;;7.18;6.47;;;1.10;1.00;;;;;;4950711;29;20566;-85
2022/03/07 02:43:38;;;;;;;11.52;6.53;;;1.00;1.00;;;;;;4947702;29;20226;-86
2022/03/07 02:46:06;;;;;;;7.05;6.35;;;1.10;6.30;;;;;;4945749;29;20239;-85
2022/03/07 02:48:33;;;;;;;8.02;7.20;;;1.30;99.90;;;;;;4945998;29;20203;-85
2022/03/07 02:50:59;;;;;;;6.55;5.85;;;1.10;1.00;;;;;;4946212;29;20207;-85
2022/03/07 02:53:26;;;;;;;6.95;5.25;;;1.10;99.90;;;;;;4946410;29;20255;-85
2022/03/07 02:55:53;;;;;;;8.65;5.95;;;1.10;1.00;;;;;;4946767;29;20223;-85
2022/03/07 02:58:21;;;;;;;6.97;6.10;;;1.10;99.90;;;;;;4947585;29;20540;-85
2022/03/07 03:00:47;;;;;;;8.00;6.25;;;1.10;1.00;;;;;;4946396;29;20274;-85
2022/03/07 03:03:14;;;;;;;9.43;6.57;;;1.10;1.00;;;;;;4946658;29;20207;-86
2022/03/07 03:05:41;;;;;;;9.23;7.13;;;1.00;1.00;;;;;;4946295;29;20327;-85
2022/03/07 03:08:08;;;;;;;7.68;6.15;;;1.00;1.00;;;;;;4946120;29;20222;-84
2022/03/07 03:10:36;;;;;;;7.82;5.75;;;1.20;1.00;;;;;;4946402;29;20222;-85
2022/03/07 03:13:03;;;;;;;7.97;6.45;;;1.00;1.00;;;;;;4945934;29;20215;-85
2022/03/07 03:15:31;;;;;;;6.72;4.95;;;1.00;1.00;;;;;;4945812;29;20227;-85
2022/03/07 03:17:57;;;;;;;7.65;5.55;;;1.00;99.90;;;;;;4946716;29;20270;-86
2022/03/07 03:20:24;;;;;;;8.85;6.20;;;0.90;99.90;;;;;;4945599;29;20637;-86
2022/03/07 03:22:51;;;;;;;10.90;6.05;;;0.90;1.00;;;;;;4946212;29;20295;-86
2022/03/07 03:25:17;;;;;;;8.70;5.90;;;1.00;1.00;;;;;;4946511;29;20250;-86
2022/03/07 03:27:44;;;;;;;9.88;6.70;;;0.90;1.00;;;;;;4946624;29;20207;-85
2022/03/07 03:30:13;;;;;;;7.38;6.68;;;0.90;99.90;;;;;;4946885;29;20214;-84
2022/03/07 03:32:41;;;;;;;11.73;6.35;;;0.90;99.90;;;;;;4956507;28;20211;-84
2022/03/07 03:35:08;;;;;;;6.30;5.68;;;0.90;1.00;;;;;;4956810;28;20214;-84
2022/03/07 03:37:35;;;;;;;12.55;7.75;;;0.90;1.00;;;;;;4960255;28;20203;-86
2022/03/07 03:40:02;;;;;;;7.18;6.47;;;0.80;1.00;;;;;;4961213;28;20183;-84
2022/03/07 03:42:29;;;;;;;9.23;7.15;;;0.80;1.00;;;;;;4961470;28;20202;-84
2022/03/07 03:44:55;;;;;;;7.38;6.68;;;0.40;1.00;;;;;;4960252;28;20215;-85
2022/03/07 03:47:22;;;;;;;9.13;6.97;;;0.80;1.00;;;;;;4975649;23;20234;-83
2022/03/07 03:49:52;;;;;;;9.43;7.55;;;0.90;11.60;;;;;;4951870;28;20198;-81
2022/03/07 03:52:19;;;;;;;8.32;6.30;;;0.80;1.00;;;;;;4961766;28;20171;-81
2022/03/07 03:54:46;;;;;;;18.05;7.32;;;0.90;1.00;;;;;;4961866;28;20183;-81
2022/03/07 03:57:12;;;;;;;8.30;5.78;;;0.70;1.00;;;;;;4961875;28;20268;-80
2022/03/07 03:59:39;;;;;;;9.98;7.05;;;0.90;1.00;;;;;;4961610;28;20230;-82
2022/03/07 04:02:06;;;;;;;7.65;6.10;;;0.90;1.00;;;;;;4961357;28;20187;-82
2022/03/07 04:04:32;;;;;;;11.88;8.00;;;0.80;97.20;;;;;;4959666;28;20230;-83
2022/03/07 04:07:00;;;;;;;7.90;7.10;;;0.80;99.90;;;;;;4958895;29;20286;-84
2022/03/07 04:09:27;;;;;;;8.27;6.93;;;0.80;66.30;;;;;;4958850;29;20233;-83
2022/03/07 04:11:54;;;;;;;10.43;7.57;;;1.00;99.90;;;;;;4950216;29;20631;-85
2022/03/07 04:14:21;;;;;;;10.02;8.15;;;0.80;99.90;;;;;;4946876;29;20203;-84
2022/03/07 04:16:48;;;;;;;8.77;7.88;;;0.80;99.90;;;;;;4946672;29;20306;-83
2022/03/07 04:19:15;;;;;;;12.48;7.68;;;0.80;1.00;;;;;;4946199;29;20626;-84
2022/03/07 04:21:43;;;;;;;13.02;8.65;;;0.70;1.00;;;;;;4948931;29;20210;-84
2022/03/07 04:24:12;;;;;;;9.55;7.45;;;0.70;13.50;;;;;;4961150;28;20235;-84
2022/03/07 04:26:39;;;;;;;12.13;8.13;;;0.70;99.90;;;;;;4951022;29;20222;-85
2022/03/07 04:29:08;;;;;;;11.60;8.88;;;0.90;99.90;;;;;;4950470;29;20239;-85
2022/03/07 04:31:35;;;;;;;10.13;8.30;;;0.70;99.90;;;;;;4947224;29;20214;-85
2022/03/07 04:34:02;;;;;;;13.35;7.90;;;0.50;1.00;;;;;;4946907;29;20207;-85
2022/03/07 04:36:28;;;;;;;10.68;8.90;;;0.70;1.00;;;;;;4946917;29;20329;-84
2022/03/07 04:38:55;;;;;;;10.70;8.38;;;0.60;1.00;;;;;;4946717;29;20235;-85
2022/03/07 04:41:23;;;;;;;10.73;8.75;;;0.70;1.00;;;;;;4947755;29;20211;-85
2022/03/07 04:43:50;;;;;;;14.73;9.13;;;0.80;1.00;;;;;;4951491;29;20238;-84
2022/03/07 04:46:18;;;;;;;15.98;9.35;;;0.70;1.00;;;;;;4960310;28;20724;-81
2022/03/07 04:48:45;;;;;;;14.02;9.48;;;0.70;1.00;;;;;;4960967;28;20186;-82
2022/03/07 04:51:11;;;;;;;9.95;8.60;;;0.70;1.00;;;;;;4961007;28;20215;-82
2022/03/07 04:53:38;;;;;;;11.60;9.10;;;0.70;1.00;;;;;;4960872;28;20194;-83
2022/03/07 04:56:06;;;;;;;15.48;9.35;;;0.80;1.00;;;;;;4960098;28;20235;-82
2022/03/07 04:58:34;;;;;;;13.30;9.90;;;0.50;1.00;;;;;;4960753;28;20211;-82
2022/03/07 05:01:00;;;;;;;14.52;9.10;;;0.60;1.00;;;;;;4960508;28;20183;-83
2022/03/07 05:03:27;;;;;;;16.13;10.05;;;0.60;1.00;;;;;;4959494;28;20207;-83
2022/03/07 05:05:54;;;;;;;9.50;8.48;;;0.70;1.00;;;;;;4949407;29;20223;-85
2022/03/07 05:08:20;;;;;;;15.25;9.57;;;0.80;1.00;;;;;;4955210;29;20203;-83
2022/03/07 05:10:52;;;;;;;10.90;9.38;;;0.60;1.00;;;;;;4953906;29;20234;-84
2022/03/07 05:13:18;;;;;;;16.10;11.48;;;0.80;99.90;;;;;;4956167;29;20199;-84
2022/03/07 05:15:46;;;;;;;10.65;9.13;;;0.60;99.90;;;;;;4955361;29;20251;-83
2022/03/07 05:18:15;;;;;;;13.43;9.68;;;0.60;99.90;;;;;;4954698;29;20211;-84
2022/03/07 05:20:42;;;;;;;13.90;9.95;;;0.60;99.90;;;;;;4948409;29;20234;-83
2022/03/07 05:23:09;;;;;;;13.40;9.60;;;0.60;99.90;;;;;;4947439;29;20262;-83
2022/03/07 05:25:35;;;;;;;14.82;10.75;;;0.80;99.90;;;;;;4946837;29;20227;-82
2022/03/07 05:28:03;;;;;;;15.63;10.07;;;;;;;;;;4946809;29;20284;-84
2022/03/07 05:30:29;;;;;;;10.52;8.70;;;0.50;99.90;;;;;;4946696;29;20207;-83
2022/03/07 05:32:57;;;;;;;13.63;10.88;;;0.50;99.90;;;;;;4944583;29;20203;-83
2022/03/07 05:35:24;;;;;;;11.50;10.02;;;0.60;99.90;;;;;;4943541;29;20204;-83
2022/03/07 05:37:51;;;;;;;15.65;9.57;;;0.60;99.90;;;;;;4944236;29;20217;-83
2022/03/07 05:40:19;;;;;;;12.63;9.23;;;0.60;99.90;;;;;;4943799;29;20211;-83
2022/03/07 05:42:46;;;;;;;13.10;9.98;;;0.60;99.90;;;;;;4944460;29;20203;-85
2022/03/07 05:45:14;;;;;;;11.27;9.20;;;0.60;99.90;;;;;;4945051;29;20231;-85
2022/03/07 05:47:41;;;;;;;12.63;10.48;;;0.60;99.90;;;;;;4945316;29;20239;-84
2022/03/07 05:50:10;;;;;;;15.35;11.07;;;0.60;99.90;;;;;;4944772;29;20210;-85
2022/03/07 05:52:37;;;;;;;12.68;10.05;;;0.60;99.90;;;;;;4946966;29;20218;-85
2022/03/07 05:55:05;;;;;;;16.77;11.48;;;0.60;99.90;;;;;;4948284;29;20254;-84
2022/03/07 05:57:32;;;;;;;17.65;10.10;;;0.60;99.90;;;;;;4948632;29;20227;-84
2022/03/07 05:59:58;;;;;;;18.85;11.40;;;0.60;99.90;;;;;;4948524;29;20203;-84
2022/03/07 06:02:25;;;;;;;19.58;13.20;;;0.60;99.90;;;;;;4948066;29;20666;-83
2022/03/07 06:04:52;;;;;;;15.10;10.98;;;0.60;99.90;;;;;;4948315;29;20717;-83
2022/03/07 06:07:20;;;;;;;18.75;11.75;;;0.60;99.90;;;;;;4948125;29;20223;-84
2022/03/07 06:09:46;;;;;;;17.70;11.80;;;0.60;99.90;;;;;;4957368;29;20215;-84
2022/03/07 06:12:13;;;;;;;23.70;11.25;;;0.60;99.90;;;;;;4958627;29;20207;-83
2022/03/07 06:14:40;;;;;;;19.30;13.55;;;0.70;99.90;;;;;;4960217;29;20203;-83
2022/03/07 06:17:06;;;;;;;17.52;13.38;;;0.60;99.90;;;;;;4957352;29;20238;-83
2022/03/07 06:19:33;;;;;;;18.30;11.05;;;0.70;99.90;;;;;;4956949;29;20243;-84
2022/03/07 06:21:59;;;;;;;20.92;13.18;;;0.70;99.90;;;;;;4958197;29;20211;-84
2022/03/07 06:24:29;;;;;;;17.05;12.52;;;0.70;99.90;;;;;;4958126;29;20263;-85
2022/03/07 06:26:56;;;;;;;17.42;12.65;;;0.70;99.90;;;;;;4960853;29;20227;-84
2022/03/07 06:29:23;;;;;;;18.90;13.35;;;0.70;99.90;;;;;;4960417;29;20211;-83
2022/03/07 06:31:50;;;;;;;14.88;10.80;;;0.70;99.90;;;;;;4961176;28;20198;-82
2022/03/07 06:34:17;;;;;;;15.68;11.93;;;1.20;99.90;;;;;;4963158;28;20181;-82
2022/03/07 06:36:43;;;;;;;19.45;13.00;;;0.80;99.90;;;;;;4958924;28;20243;-84
2022/03/07 06:39:10;;;;;;;17.95;12.85;;;0.80;99.90;;;;;;4957637;29;20211;-85
2022/03/07 06:41:38;;;;;;;16.27;11.85;;;0.70;99.90;;;;;;4954169;29;20211;-84
2022/03/07 06:44:05;;;;;;;20.92;12.70;;;0.90;99.90;;;;;;4954139;29;20211;-84
2022/03/07 06:46:32;;;;;;;16.70;11.80;;;0.90;99.90;;;;;;4958669;29;20235;-84
2022/03/07 06:48:58;;;;;;;17.50;13.88;;;1.00;99.90;;;;;;4958166;28;20222;-84
2022/03/07 06:51:25;;;;;;;18.15;13.45;;;0.90;99.90;;;;;;4953419;29;20308;-84
2022/03/07 06:53:52;;;;;;;18.25;12.43;;;1.00;99.90;;;;;;4955134;29;20203;-85
2022/03/07 06:56:18;;;;;;;20.10;12.85;;;1.00;99.90;;;;;;4957880;29;20227;-83
2022/03/07 06:58:47;;;;;;;19.02;14.18;;;1.10;99.90;;;;;;4953850;29;20211;-84
2022/03/07 07:01:13;;;;;;;14.18;11.30;;;1.10;99.90;;;;;;4957451;29;20210;-84
2022/03/07 07:03:40;;;;;;;15.05;12.50;;;1.10;99.90;;;;;;4959913;28;20195;-83
2022/03/07 07:06:07;;;;;;;22.52;13.30;;;1.20;99.90;;;;;;4962487;28;20239;-81
2022/03/07 07:08:34;;;;;;;19.00;13.60;;;1.10;99.90;;;;;;4962443;28;20183;-83
2022/03/07 07:11:00;;;;;;;24.65;14.18;;;1.40;99.90;;;;;;4961863;28;20231;-82
2022/03/07 07:13:27;;;;;;;22.30;12.18;;;1.20;99.90;;;;;;4961645;28;20215;-84
2022/03/07 07:15:55;;;;;;;17.95;12.60;;;1.60;99.90;;;;;;4960531;28;20262;-84
2022/03/07 07:18:22;;;;;;;16.00;11.68;;;1.40;99.90;;;;;;4953910;29;20211;-84
2022/03/07 07:20:50;;;;;;;18.45;12.65;;;1.50;99.90;;;;;;4956734;29;20262;-84
2022/03/07 07:23:17;;;;;;;19.95;12.88;;;1.50;99.90;;;;;;4959473;29;20209;-84
2022/03/07 07:25:44;;;;;;;18.92;14.88;;;1.60;99.90;;;;;;4960643;28;20218;-84
2022/03/07 07:28:10;;;;;;;18.52;14.15;;;1.60;99.90;;;;;;4958003;29;20206;-85
2022/03/07 07:30:37;;;;;;;20.10;13.43;;;1.50;99.90;;;;;;4953495;29;20222;-84
2022/03/07 07:33:06;;;;;;;21.75;13.30;;;1.70;99.90;;;;;;4954610;29;20207;-84
2022/03/07 07:35:34;;;;;;;20.13;13.65;;;1.90;99.90;;;;;;4947764;29;20214;-84
2022/03/07 07:38:00;;;;;;;20.85;13.15;;;1.80;99.90;;;;;;4945116;29;20207;-84
2022/03/07 07:40:27;;;;;;;19.52;14.57;;;1.80;99.90;;;;;;4947033;29;20214;-84
2022/03/07 07:42:54;;;;;;;23.60;14.63;;;1.90;99.90;;;;;;4945848;29;20203;-85
2022/03/07 07:45:20;;;;;;;20.42;13.18;;;2.10;99.90;;;;;;4945425;29;20223;-84
2022/03/07 07:47:47;;;;;;;21.08;13.75;;;2.30;99.90;;;;;;4945428;29;20219;-85
2022/03/07 07:50:16;;;;;;;20.83;13.80;;;2.10;99.90;;;;;;4946350;29;20274;-84
2022/03/07 07:52:42;;;;;;;19.15;11.23;;;2.20;99.90;;;;;;4946861;29;20211;-83
2022/03/07 07:55:10;;;;;;;20.35;12.02;;;2.30;99.90;;;;;;4947846;29;20203;-84
2022/03/07 07:57:36;;;;;;;15.65;12.50;;;2.30;99.90;;;;;;4947331;29;20598;-84
2022/03/07 08:00:05;;;;;;;15.77;13.20;;;2.60;99.90;;;;;;4945782;29;20211;-86
2022/03/07 08:02:31;;;;;;;13.30;11.15;;;2.40;99.90;;;;;;4945821;29;20207;-85
2022/03/07 08:04:58;;;;;;;18.83;12.13;;;2.50;99.90;;;;;;4947064;29;20223;-85
2022/03/07 08:07:28;;;;;;;15.70;12.07;;;2.50;99.90;;;;;;4948501;29;20223;-85
2022/03/07 08:09:55;;;;;;;19.00;13.23;;;2.90;99.90;;;;;;4950936;29;20196;-86
2022/03/07 08:12:22;;;;;;;21.05;11.48;;;2.90;99.90;;;;;;4952057;29;20207;-84
2022/03/07 08:14:49;;;;;;;16.23;11.05;;;2.90;99.90;;;;;;4955673;29;20218;-85
2022/03/07 08:17:16;;;;;;;14.68;11.02;;;2.90;99.90;;;;;;4957499;28;20233;-84
2022/03/07 08:19:42;;;;;;;12.60;10.05;;;3.00;99.90;;;;;;4955033;29;20225;-84
2022/03/07 08:22:09;;;;;;;17.58;10.60;;;3.10;99.90;;;;;;4950393;29;20211;-84
2022/03/07 08:24:37;;;;;;;12.77;10.35;;;3.10;99.90;;;;;;4948466;29;20266;-85
2022/03/07 08:27:04;;;;;;;19.70;10.55;;;3.60;99.90;;;;;;4947458;29;20227;-85
2022/03/07 08:29:31;;;;;;;12.75;10.50;;;3.30;99.90;;;;;;4948816;29;20682;-85
2022/03/07 08:31:57;;;;;;;15.95;11.80;;;3.40;99.90;;;;;;4947021;29;20215;-85
2022/03/07 08:34:24;;;;;;;12.93;10.60;;;3.20;99.90;;;;;;4947012;29;20203;-85
2022/03/07 08:36:51;;;;;;;13.77;10.23;;;3.40;99.90;;;;;;4946587;29;20348;-86
2022/03/07 08:39:18;;;;;;;13.43;9.85;;;3.40;99.90;;;;;;4946310;29;20207;-85
2022/03/07 08:41:46;;;;;;;12.35;9.95;;;3.50;1.00;;;;;;4949372;29;20206;-84
2022/03/07 08:44:12;;;;;;;12.50;9.93;;;3.60;99.90;;;;;;4947424;29;20218;-85
2022/03/07 08:46:39;;;;;;;11.00;9.73;;;3.70;1.00;;;;;;4946453;29;20714;-85
2022/03/07 08:49:06;;;;;;;12.52;10.23;;;4.20;99.90;;;;;;4945684;29;20226;-87
2022/03/07 08:51:33;;;;;;;11.57;9.00;;;3.80;99.90;;;;;;4946806;29;20210;-86
2022/03/07 08:54:18;;;;;;;15.98;9.27;;;3.90;99.90;;;;;;4946036;29;20557;-85
2022/03/07 08:56:46;;;;;;;12.80;9.40;;;4.00;1.00;;;;;;4954194;29;20229;-85
2022/03/07 08:59:26;;;;;;;11.80;8.52;;;4.20;4.70;;;;;;4959609;28;20235;-85
2022/03/07 09:02:09;;;;;;;10.38;9.05;;;4.10;46.80;;;;;;4960481;28;20199;-83
2022/03/07 09:04:36;;;;;;;10.35;8.73;;;;;;;;;;4960662;28;20233;-82
2022/03/07 09:07:03;;;;;;;12.07;8.85;;;4.30;1.00;;;;;;4960517;28;20233;-82
2022/03/07 09:09:30;;;;;;;15.88;9.82;;;4.30;99.90;;;;;;4959841;28;20203;-85
2022/03/07 09:12:00;;;;;;;13.82;8.35;;;4.40;99.90;;;;;;4959835;28;20247;-84
2022/03/07 09:14:27;;;;;;;11.30;8.60;;;3.50;1.00;;;;;;4959258;28;20183;-83
2022/03/07 09:16:54;;;;;;;15.95;9.43;;;4.50;99.90;;;;;;4952893;29;20215;-85
2022/03/07 09:19:20;;;;;;;12.85;9.02;;;4.60;99.90;;;;;;4947976;29;20259;-83
2022/03/07 09:21:50;;;;;;;12.95;9.18;;;4.40;1.00;;;;;;4948586;29;20654;-85
2022/03/07 09:24:17;;;;;;;11.55;8.93;;;4.20;99.90;;;;;;4949849;29;20726;-85
2022/03/07 09:26:44;;;;;;;13.50;8.90;;;4.40;99.90;;;;;;4957638;28;20238;-83
2022/03/07 09:29:12;;;;;;;14.60;8.02;;;4.60;1.00;;;;;;4963961;28;20286;-84
2022/03/07 09:31:40;;;;;;;9.02;7.15;;;4.60;99.90;;;;;;4953686;29;20217;-85
2022/03/07 09:34:06;;;;;;;14.50;7.35;;;4.70;1.00;;;;;;4950697;29;20210;-85
2022/03/07 09:36:36;;;;;;;9.68;7.50;;;4.80;1.00;;;;;;4949978;29;20314;-84
2022/03/07 09:39:03;;;;;;;8.18;7.00;;;4.90;99.90;;;;;;4948727;29;20211;-85
2022/03/07 09:41:30;;;;;;;11.10;8.00;;;5.00;99.90;;;;;;4952143;29;20218;-85
2022/03/07 09:43:57;;;;;;;12.88;8.13;;;5.10;99.90;;;;;;4950975;29;20211;-85
2022/03/07 09:46:25;;;;;;;9.57;6.22;;;5.20;4.60;;;;;;4974287;23;20215;-83
2022/03/07 09:48:54;;;;;;;10.27;6.25;;;5.20;99.90;;;;;;4951310;29;20203;-84
2022/03/07 09:51:21;;;;;;;10.52;6.72;;;5.30;1.00;;;;;;4949828;29;20651;-84
2022/03/07 09:53:47;;;;;;;9.45;7.40;;;5.30;1.00;;;;;;4949149;29;20203;-84
2022/03/07 09:56:14;;;;;;;13.40;7.03;;;5.20;99.90;;;;;;4948453;29;20227;-86
2022/03/07 09:58:41;;;;;;;9.63;6.93;;;5.40;99.90;;;;;;4947798;29;20207;-86
2022/03/07 10:01:09;;;;;;;13.40;7.25;;;5.30;99.90;;;;;;4950750;29;20662;-86
2022/03/07 10:03:38;;;;;;;13.63;7.25;;;5.30;99.90;;;;;;4956769;29;20203;-86
2022/03/07 10:06:13;;;;;;;6.85;6.15;;;5.30;99.90;;;;;;4955884;29;20227;-86
2022/03/07 10:08:50;;;;;;;11.60;7.45;;;5.20;99.90;;;;;;4949338;29;20214;-86
2022/03/07 10:11:17;;;;;;;10.90;7.75;;;5.20;99.90;;;;;;4948862;29;20215;-86
2022/03/07 10:13:50;;;;;;;9.40;6.72;;;5.30;99.90;;;;;;4948563;29;20211;-85
2022/03/07 10:16:17;;;;;;;11.50;6.82;;;5.40;99.90;;;;;;4951769;29;20223;-86
2022/03/07 10:18:50;;;;;;;9.07;6.55;;;5.50;99.90;;;;;;4948335;29;20207;-85
2022/03/07 10:21:22;;;;;;;8.30;6.78;;;5.50;99.90;;;;;;4948207;29;20192;-86
2022/03/07 10:23:52;;;;;;;7.90;6.38;;;5.50;99.90;;;;;;4947867;29;20273;-86
2022/03/07 10:26:18;;;;;;;12.45;6.30;;;5.60;1.00;;;;;;4947944;29;20227;-86
2022/03/07 10:28:52;;;;;;;8.65;6.00;;;5.70;99.90;;;;;;4948272;29;20682;-86
2022/03/07 10:31:19;;;;;;;10.50;7.28;;;5.60;53.00;;;;;;4948338;29;20251;-86
2022/03/07 10:33:47;;;;;;;17.05;7.95;;;5.60;1.00;;;;;;4948332;29;20219;-85
2022/03/07 10:36:15;;;;;;;10.95;7.55;;;5.70;1.00;;;;;;4948257;29;20230;-86
2022/03/07 10:38:58;;;;;;;10.35;5.60;;;5.60;99.90;;;;;;4947813;29;20230;-86
2022/03/07 10:41:33;;;;;;;7.55;6.00;;;5.70;99.90;;;;;;4948401;29;20195;-85
2022/03/07 10:44:00;;;;;;;5.55;4.90;;;5.70;99.90;;;;;;4947776;29;20187;-85
2022/03/07 10:46:27;;;;;;;5.63;5.07;;;6.30;99.90;;;;;;4948155;29;20235;-85
2022/03/07 10:49:00;;;;;;;6.38;5.55;;;5.70;99.90;;;;;;4948573;29;20658;-86
2022/03/07 10:51:29;;;;;;;6.20;5.30;;;5.80;99.90;;;;;;4948347;29;20191;-85
2022/03/07 10:53:56;;;;;;;5.63;5.13;;;;;;;;;;4948552;29;20234;-85
2022/03/07 10:56:24;;;;;;;9.60;4.90;;;5.70;99.90;;;;;;4951314;29;20223;-86
2022/03/07 10:58:53;;;;;;;6.90;4.70;;;6.00;99.90;;;;;;4951475;29;20270;-85
2022/03/07 11:01:30;;;;;;;5.32;4.25;;;6.40;99.90;;;;;;4947532;29;20754;-85
2022/03/07 11:03:57;;;;;;;7.78;4.80;;;8.70;99.90;;;;;;4947456;29;20211;-86
2022/03/07 11:06:25;;;;;;;6.38;5.78;;;6.10;99.90;;;;;;4950119;29;20762;-85
2022/03/07 11:08:53;;;;;;;6.82;4.90;;;5.90;99.90;;;;;;4956539;28;20216;-84
2022/03/07 11:11:20;;;;;;;4.57;4.07;;;6.30;99.90;;;;;;4961310;28;20187;-83
2022/03/07 11:13:52;;;;;;;8.23;4.45;;;6.20;99.90;;;;;;4961008;28;20202;-85
2022/03/07 11:16:21;;;;;;;6.50;4.70;;;6.10;99.90;;;;;;4959806;28;20241;-85
2022/03/07 11:18:52;;;;;;;5.88;5.28;;;6.20;99.90;;;;;;4959209;29;20199;-85
2022/03/07 11:21:20;;;;;;;7.57;6.25;;;6.20;99.90;;;;;;4951436;29;20331;-86
2022/03/07 11:23:47;;;;;;;5.75;4.72;;;6.30;99.90;;;;;;4949531;29;20223;-86
2022/03/07 11:26:18;;;;;;;4.88;4.38;;;6.70;99.90;;;;;;4948869;29;20231;-86
2022/03/07 11:28:50;;;;;;;5.45;4.10;;;6.40;99.90;;;;;;4951685;29;20196;-86
2022/03/07 11:31:21;;;;;;;2.80;2.45;;;6.50;99.90;;;;;;4946270;29;20191;-85
2022/03/07 11:33:51;;;;;;;4.07;2.80;;;6.50;99.90;;;;;;4945933;29;20237;-86
2022/03/07 11:36:20;;;;;;;2.60;2.40;;;6.60;99.90;;;;;;4947183;29;20223;-86
2022/03/07 11:38:55;;;;;;;3.83;2.92;;;6.70;99.90;;;;;;4947417;29;20207;-86
2022/03/07 11:41:27;;;;;;;3.90;3.50;;;6.70;99.90;;;;;;4947249;29;20198;-86
2022/03/07 11:43:57;;;;;;;5.85;3.72;;;6.70;99.90;;;;;;4947895;29;20651;-85
2022/03/07 11:46:25;;;;;;;5.20;3.35;;;6.80;99.90;;;;;;4952953;28;20237;-85
2022/03/07 11:48:52;;;;;;;3.65;3.35;;;6.90;99.90;;;;;;4944857;29;20207;-85
2022/03/07 11:51:21;;;;;;;4.25;3.33;;;7.00;99.90;;;;;;4946085;29;20222;-86
2022/03/07 11:53:49;;;;;;;4.55;3.60;;;6.90;99.90;;;;;;4946036;29;20211;-86
2022/03/07 11:56:17;;;;;;;3.83;2.97;;;7.00;99.90;;;;;;4946854;29;20223;-86
2022/03/07 11:58:49;;;;;;;3.83;3.35;;;7.10;99.90;;;;;;4947383;29;20221;-85
2022/03/07 12:01:16;;;;;;;3.33;2.88;;;7.20;99.90;;;;;;4947599;29;20207;-85
2022/03/07 12:03:47;;;;;;;5.88;3.80;;;7.10;99.90;;;;;;4950859;29;20203;-85
2022/03/07 12:06:15;;;;;;;4.25;3.75;;;7.00;99.90;;;;;;4960374;28;20218;-83
2022/03/07 12:08:44;;;;;;;5.40;3.80;;;7.00;99.90;;;;;;4960576;28;20179;-84
2022/03/07 12:11:23;;;;;;;4.75;3.67;;;7.20;99.90;;;;;;4959792;28;20202;-85
2022/03/07 12:13:52;;;;;;;4.82;3.60;;;7.20;99.90;;;;;;4951796;28;20289;-85
2022/03/07 12:16:26;;;;;;;3.85;3.55;;;7.20;99.90;;;;;;4944804;29;20223;-85
2022/03/07 12:19:06;;;;;;;6.43;3.15;;;7.30;99.90;;;;;;4945179;29;20328;-85
2022/03/07 12:21:32;;;;;;;5.05;3.50;;;7.60;99.90;;;;;;4944326;29;20209;-84
2022/03/07 12:24:00;;;;;;;3.30;2.85;;;7.40;99.90;;;;;;4944128;29;20670;-85
2022/03/07 12:26:26;;;;;;;3.55;2.80;;;7.30;99.90;;;;;;4945704;29;20594;-86
2022/03/07 12:28:54;;;;;;;3.47;3.17;;;7.30;99.90;;;;;;4945599;29;20251;-87
2022/03/07 12:31:23;;;;;;;3.78;2.80;;;7.30;99.90;;;;;;4946380;29;20262;-86
2022/03/07 12:33:50;;;;;;;2.35;2.15;;;7.40;99.90;;;;;;4946085;29;20218;-85
2022/03/07 12:36:17;;;;;;;3.95;2.85;;;7.30;99.90;;;;;;4945213;29;20290;-85
2022/03/07 12:38:49;;;;;;;7.95;2.70;;;7.30;99.90;;;;;;4945749;29;20218;-84
2022/03/07 12:41:16;;;;;;;2.90;2.60;;;7.40;99.90;;;;;;4945972;29;20203;-85
2022/03/07 12:43:45;;;;;;;2.88;2.55;;;7.50;99.90;;;;;;4945511;29;20556;-83
2022/03/07 12:46:13;;;;;;;3.45;3.15;;;7.50;99.90;;;;;;4944401;29;20277;-86
2022/03/07 12:48:43;;;;;;;3.40;3.10;;;7.40;99.90;;;;;;4945838;29;20248;-86
2022/03/07 12:51:11;;;;;;;3.60;2.97;;;7.40;99.90;;;;;;4945605;29;20231;-85
2022/03/07 12:53:47;;;;;;;2.63;1.73;;;7.90;99.90;;;;;;4951232;29;20239;-84
2022/03/07 12:56:15;;;;;;;2.45;2.25;;;7.50;99.90;;;;;;4951253;29;20262;-83